Aarhus, Denmark

4:36 AM CEST on August 31, 2015 (GMT +0200)
Aarhus | | Change Station
CLOSE
Current Station
Airport
Location: Tirstrup,
Elevation: 75 ft
Nearby Weather Stations

Elev 75 ft 56.31 °N, 10.63 °E | Updated 16 minutes ago

Overcast
Overcast
59 °F
Feels Like 59 °F
N
1
Wind Variable Wind from ENE

Today
High -- | Low -- °F
--% Chance of Precip.
Yesterday
High -- | Low -- °F
Precip. -- in
6:20 AM 8:17 PM
Full, 97% visible
Pressure 30.06 in
Visibility 6.2 miles
Clouds Overcast 6700 ft
Dew Point 54 °F
Humidity 82%
Rainfall 0.00 in
Snow Depth Not available.
UV 0 out of 12
Pollen Not available.
Air Quality Not available.
Flu Activity Not available.
METAR EKAH 310220Z AUTO 06001KT 9999NDV OVC067/// 15/12 Q1018
Pressure 30.06 in
Visibility 6.2 miles
Clouds Overcast 6700 ft
Dew Point 54 °F
Humidity 82%
Rainfall 0.00 in
Snow Depth Not available.
UV 0 out of 12
Pollen Not available.
Air Quality Not available.
Flu Activity Not available.
METAR EKAH 310220Z AUTO 06001KT 9999NDV OVC067/// 15/12 Q1018

10-Day Weather Forecast

×

Almanac

Astronomy

Aug. 31, 2015 Rise Set
Actual Time
Civil Twilight
Nautical Twilight
Astronomical Twilight
Moon
Length of Visible Light
Length of Day
Tomorrow will be .
, % of the Moon is Illuminated

Today's Extremes

Country Highs Country Lows

Community

WunderPhotos

Upload Photos

1,851,164 photos uploaded!

WunderBlogs® & News

Nearby

Air Quality

  Air Quality AQ Index Pollutant
Not available.

Snow Depth

Station Depth Elevation

Earthquake Activity

City Distance Mag. Time & Date
Minimum magnitude displayed is 2.5.

Coastal Water Temperatures

Place Temperature

Stations

Nearby Weather Stations

Station Location Temp. Windchill Dew Point Humidity Wind Precip. Elev Updated Type